createdAt,value
2018-10-07T00:02:03.531Z,93.29
2018-10-07T00:04:32.387Z,93.19
2018-10-07T00:07:01.256Z,93.38
2018-10-07T00:09:30.113Z,93.70
2018-10-07T00:11:58.955Z,93.88
2018-10-07T00:14:27.793Z,93.75
2018-10-07T00:16:56.642Z,93.74
2018-10-07T00:19:25.483Z,94.29
2018-10-07T00:21:54.435Z,93.84
2018-10-07T00:24:23.307Z,93.47
2018-10-07T00:26:52.157Z,93.77
2018-10-07T00:29:21.035Z,93.68
2018-10-07T00:31:54.896Z,94.06
2018-10-07T00:34:23.762Z,93.80
2018-10-07T00:36:52.607Z,93.27
2018-10-07T00:39:21.461Z,93.43
2018-10-07T00:41:50.344Z,93.55
2018-10-07T00:44:19.211Z,93.37
2018-10-07T00:46:48.055Z,94.08
2018-10-07T00:49:17.011Z,93.17
2018-10-07T00:51:45.899Z,93.21
2018-10-07T00:54:14.778Z,93.76
2018-10-07T00:56:43.669Z,94.44
2018-10-07T00:59:12.550Z,94.02
2018-10-07T01:01:41.415Z,94.22
2018-10-07T01:04:10.254Z,94.05
2018-10-07T01:06:39.122Z,93.87
2018-10-07T01:09:10.327Z,93.87
2018-10-07T01:11:39.596Z,94.00
2018-10-07T01:14:08.611Z,94.49
2018-10-07T01:16:37.458Z,95.29
2018-10-07T01:19:06.386Z,95.00
2018-10-07T01:21:35.367Z,94.49
2018-10-07T01:24:04.240Z,94.68
2018-10-07T01:26:33.081Z,94.24
2018-10-07T01:29:01.966Z,94.68
2018-10-07T01:31:30.827Z,95.83
2018-10-07T01:33:59.676Z,95.57
2018-10-07T01:36:28.570Z,95.30
2018-10-07T01:38:57.420Z,95.89
2018-10-07T01:41:26.243Z,96.75
2018-10-07T01:43:55.111Z,96.92
2018-10-07T01:46:23.943Z,96.80
2018-10-07T01:48:52.814Z,96.93
2018-10-07T01:51:21.659Z,96.57
2018-10-07T01:53:50.536Z,96.75
2018-10-07T01:56:19.390Z,96.22
2018-10-07T01:58:48.215Z,96.71
2018-10-07T02:01:17.047Z,96.39
2018-10-07T02:03:45.880Z,95.67
2018-10-07T02:06:14.780Z,95.39
2018-10-07T02:08:43.619Z,95.43
2018-10-07T02:11:12.462Z,96.06
2018-10-07T02:13:41.367Z,95.74
2018-10-07T02:16:10.210Z,95.80
2018-10-07T02:18:39.060Z,95.99
2018-10-07T02:21:08.118Z,95.79
2018-10-07T02:23:36.967Z,95.98
2018-10-07T02:26:05.851Z,96.21
2018-10-07T02:28:34.667Z,96.15
2018-10-07T02:31:03.508Z,96.20
2018-10-07T02:33:32.364Z,96.44
2018-10-07T02:36:01.244Z,95.98
2018-10-07T02:38:30.539Z,96.03
2018-10-07T02:40:59.471Z,96.29
2018-10-07T02:43:28.319Z,95.79
2018-10-07T02:45:57.192Z,95.71
2018-10-07T02:48:26.063Z,96.22
2018-10-07T02:50:54.976Z,96.16
2018-10-07T02:53:24.029Z,96.04
2018-10-07T02:55:52.954Z,96.10
2018-10-07T02:58:21.935Z,97.32
2018-10-07T03:00:50.863Z,97.22
2018-10-07T03:03:19.723Z,97.27
2018-10-07T03:05:48.622Z,97.30
2018-10-07T03:08:17.492Z,96.96
2018-10-07T03:10:46.336Z,97.64
2018-10-07T03:13:15.179Z,97.41
2018-10-07T03:15:44.017Z,97.09
2018-10-07T03:18:12.879Z,97.11
2018-10-07T03:20:41.728Z,97.05
2018-10-07T03:23:10.563Z,97.41
2018-10-07T03:25:39.694Z,96.80
2018-10-07T03:28:08.548Z,97.23
2018-10-07T03:30:37.381Z,97.08
2018-10-07T03:33:06.262Z,96.84
2018-10-07T03:35:35.104Z,96.90
2018-10-07T03:38:03.950Z,96.69
2018-10-07T03:40:32.779Z,97.24
2018-10-07T03:43:01.607Z,97.05
2018-10-07T03:45:30.452Z,97.33
2018-10-07T03:47:59.291Z,96.87
2018-10-07T03:50:28.119Z,96.81
2018-10-07T03:52:56.931Z,97.38
2018-10-07T03:55:25.764Z,97.63
2018-10-07T03:57:54.582Z,97.28
2018-10-07T04:00:23.526Z,97.71
2018-10-07T04:02:52.357Z,98.25
2018-10-07T04:05:21.237Z,98.77
2018-10-07T04:07:50.111Z,98.53
2018-10-07T04:10:18.932Z,98.53
2018-10-07T04:12:47.762Z,97.80
2018-10-07T04:15:16.634Z,97.92
2018-10-07T04:17:45.499Z,97.90
2018-10-07T04:20:14.311Z,97.58
2018-10-07T04:22:43.183Z,97.08
2018-10-07T04:25:12.007Z,96.97
2018-10-07T04:27:40.855Z,96.65
2018-10-07T04:30:09.737Z,97.33
2018-10-07T04:32:38.959Z,97.32
2018-10-07T04:35:07.809Z,96.99
2018-10-07T04:37:36.651Z,97.04
2018-10-07T04:40:05.561Z,97.37
2018-10-07T04:42:34.412Z,97.50
2018-10-07T04:45:03.235Z,97.99
2018-10-07T04:47:32.077Z,97.66
2018-10-07T04:50:00.902Z,97.33
2018-10-07T04:52:29.743Z,97.54
2018-10-07T04:54:58.572Z,97.67
2018-10-07T04:57:27.387Z,97.95
2018-10-07T04:59:56.223Z,97.92
2018-10-07T05:02:25.066Z,97.72
2018-10-07T05:04:53.953Z,97.83
2018-10-07T05:07:22.959Z,97.60
2018-10-07T05:10:01.615Z,98.03
2018-10-07T05:12:30.623Z,98.36
2018-10-07T05:14:59.542Z,98.83
2018-10-07T05:17:28.495Z,98.42
2018-10-07T05:19:57.383Z,98.57
2018-10-07T05:22:26.249Z,98.22
2018-10-07T05:24:55.102Z,98.70
2018-10-07T05:27:24.006Z,99.03
2018-10-07T05:29:52.854Z,98.67
2018-10-07T05:32:21.720Z,98.90
2018-10-07T05:34:50.555Z,98.25
2018-10-07T05:37:19.374Z,98.80
2018-10-07T05:39:48.198Z,98.39
2018-10-07T05:42:17.020Z,97.82
2018-10-07T05:44:45.901Z,98.03
2018-10-07T05:47:14.732Z,98.08
2018-10-07T05:49:43.571Z,97.48
2018-10-07T05:52:12.404Z,97.50
2018-10-07T05:54:41.354Z,97.70
2018-10-07T05:57:10.206Z,98.08
2018-10-07T05:59:39.175Z,98.92
2018-10-07T06:02:08.206Z,99.47
2018-10-07T06:04:42.634Z,100.00
2018-10-07T06:07:11.544Z,99.90
2018-10-07T06:09:40.444Z,100.00
2018-10-07T06:12:09.359Z,99.94
2018-10-07T06:14:49.304Z,100.00
2018-10-07T06:17:18.155Z,99.34
2018-10-07T06:19:47.042Z,99.13
2018-10-07T06:22:15.951Z,98.68
2018-10-07T06:24:44.804Z,98.19
2018-10-07T06:27:13.669Z,98.33
2018-10-07T06:29:42.612Z,98.05
2018-10-07T06:32:11.501Z,97.82
2018-10-07T06:34:40.339Z,97.91
2018-10-07T06:37:09.259Z,96.00
2018-10-07T06:39:38.099Z,93.48
2018-10-07T06:42:06.968Z,92.89
2018-10-07T06:44:35.830Z,92.54
2018-10-07T06:47:04.807Z,92.90
2018-10-07T06:49:33.663Z,93.15
2018-10-07T06:52:02.559Z,93.01
2018-10-07T06:54:31.448Z,93.31
2018-10-07T06:57:00.278Z,93.58
2018-10-07T06:59:29.561Z,93.48
2018-10-07T07:01:58.479Z,93.35
2018-10-07T07:04:27.697Z,93.13
2018-10-07T07:06:56.540Z,92.65
2018-10-07T07:09:25.371Z,92.35
2018-10-07T07:11:54.196Z,92.27
2018-10-07T07:14:23.054Z,92.02
2018-10-07T07:16:51.879Z,92.26
2018-10-07T07:19:20.739Z,92.92
2018-10-07T07:21:49.573Z,92.54
2018-10-07T07:24:18.447Z,91.70
2018-10-07T07:26:47.318Z,90.93
2018-10-07T07:29:16.144Z,91.17
2018-10-07T07:31:45.010Z,91.49
2018-10-07T07:34:13.860Z,91.36
2018-10-07T07:36:42.784Z,91.28
2018-10-07T07:39:11.603Z,91.03
2018-10-07T07:41:40.434Z,90.18
2018-10-07T07:44:09.290Z,88.92
2018-10-07T07:46:38.114Z,87.14
2018-10-07T07:49:06.985Z,85.22
2018-10-07T07:51:35.845Z,83.97
2018-10-07T07:54:04.803Z,82.05
2018-10-07T07:56:33.628Z,80.00
2018-10-07T07:59:02.483Z,78.56
2018-10-07T08:01:31.337Z,76.71
2018-10-07T08:04:00.183Z,75.71
2018-10-07T08:06:28.999Z,74.18
2018-10-07T08:08:58.000Z,72.92
2018-10-07T08:11:26.698Z,71.34
2018-10-07T08:13:55.527Z,70.31
2018-10-07T08:16:24.362Z,70.56
2018-10-07T08:18:53.180Z,69.34
2018-10-07T08:21:22.003Z,70.81
2018-10-07T08:23:50.879Z,69.35
2018-10-07T08:26:19.671Z,69.68
2018-10-07T08:28:48.510Z,67.80
2018-10-07T08:31:17.371Z,70.31
2018-10-07T08:33:46.205Z,70.30
2018-10-07T08:36:15.059Z,69.86
2018-10-07T08:38:43.890Z,68.76
2018-10-07T08:41:12.759Z,68.02
2018-10-07T08:43:41.570Z,68.25
2018-10-07T08:46:10.405Z,68.03
2018-10-07T08:48:39.255Z,69.74
2018-10-07T08:51:08.127Z,69.83
2018-10-07T08:53:36.939Z,66.99
2018-10-07T08:56:05.925Z,66.61
2018-10-07T08:58:34.707Z,66.23
2018-10-07T09:01:03.635Z,67.25
2018-10-07T09:03:32.475Z,66.92
2018-10-07T09:06:01.311Z,65.28
2018-10-07T09:08:30.190Z,65.83
2018-10-07T09:10:59.050Z,67.12
2018-10-07T09:13:27.899Z,67.82
2018-10-07T09:15:56.748Z,68.15
2018-10-07T09:18:25.573Z,67.01
2018-10-07T09:20:54.434Z,67.47
2018-10-07T09:23:23.284Z,65.66
2018-10-07T09:25:52.119Z,66.74
2018-10-07T09:28:21.060Z,61.96
2018-10-07T09:30:49.938Z,62.77
2018-10-07T09:33:18.783Z,62.08
2018-10-07T09:35:47.624Z,62.80
2018-10-07T09:38:16.437Z,60.23
2018-10-07T09:40:45.299Z,59.65
2018-10-07T09:43:14.154Z,59.26
2018-10-07T09:45:43.027Z,59.92
2018-10-07T09:48:11.970Z,60.56
2018-10-07T09:50:40.803Z,59.65
2018-10-07T09:53:09.699Z,58.11
2018-10-07T09:55:38.516Z,57.85
2018-10-07T09:58:07.465Z,55.36
2018-10-07T10:00:40.950Z,56.19
2018-10-07T10:03:11.308Z,52.56
2018-10-07T10:05:40.200Z,55.12
2018-10-07T10:08:09.562Z,57.09
2018-10-07T10:10:38.436Z,56.40
2018-10-07T10:13:07.272Z,52.46
2018-10-07T10:15:36.111Z,55.08
2018-10-07T10:18:09.234Z,54.66
2018-10-07T10:20:45.152Z,53.16
2018-10-07T10:23:20.656Z,53.44
2018-10-07T10:28:02.534Z,54.08
2018-10-07T10:31:08.824Z,55.97
2018-10-07T10:33:42.039Z,53.53
2018-10-07T10:36:19.339Z,53.58
2018-10-07T10:38:54.428Z,53.61
2018-10-07T10:41:26.583Z,53.98
2018-10-07T10:43:58.924Z,55.74
2018-10-07T10:46:32.592Z,57.91
2018-10-07T10:49:41.835Z,57.37
2018-10-07T10:53:20.587Z,57.93
2018-10-07T10:56:26.646Z,60.33
2018-10-07T10:59:08.799Z,59.97
2018-10-07T11:01:50.443Z,60.93
2018-10-07T11:04:25.315Z,61.51
2018-10-07T11:07:32.303Z,61.61
2018-10-07T11:11:10.787Z,62.73
2018-10-07T11:13:48.587Z,62.39
2018-10-07T11:16:28.979Z,64.03
2018-10-07T11:19:06.455Z,65.16
2018-10-07T11:22:12.220Z,66.16
2018-10-07T11:25:05.732Z,67.01
2018-10-07T11:27:44.900Z,61.73
2018-10-07T11:30:23.256Z,61.26
2018-10-07T11:33:00.806Z,58.63
2018-10-07T11:35:45.111Z,53.43
2018-10-07T11:38:22.969Z,52.83
2018-10-07T11:41:02.527Z,50.93
2018-10-07T11:43:36.520Z,52.59
2018-10-07T11:51:01.199Z,52.04
2018-10-07T11:54:00.956Z,52.52
2018-10-07T11:56:29.785Z,53.62
2018-10-07T11:58:58.616Z,52.14
2018-10-07T12:01:27.438Z,55.05
2018-10-07T12:03:56.286Z,54.93
2018-10-07T12:06:25.151Z,54.52
2018-10-07T12:08:53.995Z,52.71
2018-10-07T12:11:22.823Z,53.18
2018-10-07T12:13:51.654Z,52.54
2018-10-07T12:16:20.563Z,54.42
2018-10-07T12:18:49.363Z,52.84
2018-10-07T12:21:18.200Z,50.72
2018-10-07T12:23:47.018Z,49.54
2018-10-07T12:26:15.843Z,49.17
2018-10-07T12:28:44.723Z,48.57
2018-10-07T12:31:13.523Z,49.31
2018-10-07T12:33:42.356Z,48.84
2018-10-07T12:36:11.220Z,48.08
2018-10-07T12:38:40.064Z,47.78
2018-10-07T12:41:08.916Z,47.27
2018-10-07T12:43:37.756Z,46.56
2018-10-07T12:46:06.680Z,46.49
2018-10-07T12:48:35.779Z,46.60
2018-10-07T12:51:04.675Z,44.16
2018-10-07T12:53:33.507Z,43.27
2018-10-07T12:56:02.362Z,41.66
2018-10-07T12:58:31.175Z,39.39
2018-10-07T13:01:00.003Z,39.61
2018-10-07T13:03:28.846Z,39.09
2018-10-07T13:05:57.691Z,38.48
2018-10-07T13:08:26.505Z,40.14
2018-10-07T13:10:55.338Z,40.08
2018-10-07T13:13:24.203Z,40.78
2018-10-07T13:15:53.067Z,39.69
2018-10-07T13:18:21.906Z,41.97
2018-10-07T13:20:50.743Z,44.16
2018-10-07T13:23:19.572Z,47.20
2018-10-07T13:25:48.405Z,44.62
2018-10-07T13:28:17.251Z,46.32
2018-10-07T13:30:46.067Z,45.91
2018-10-07T13:33:14.923Z,47.11
2018-10-07T13:35:43.735Z,47.19
2018-10-07T13:38:12.722Z,47.62
2018-10-07T13:40:41.554Z,47.06
2018-10-07T13:43:10.412Z,46.78
2018-10-07T13:45:39.228Z,47.19
2018-10-07T13:48:08.051Z,47.31
2018-10-07T13:50:36.867Z,47.52
2018-10-07T13:53:05.703Z,47.47
2018-10-07T13:55:34.522Z,47.84
2018-10-07T13:58:03.414Z,48.27
2018-10-07T14:00:32.254Z,48.45
2018-10-07T14:03:01.072Z,47.01
2018-10-07T14:05:29.940Z,47.87
2018-10-07T14:07:58.763Z,46.95
2018-10-07T14:10:27.610Z,46.70
2018-10-07T14:12:56.438Z,46.96
2018-10-07T14:15:25.314Z,47.43
2018-10-07T14:17:54.174Z,48.47
2018-10-07T14:20:23.086Z,48.13
2018-10-07T14:22:51.923Z,48.99
2018-10-07T14:25:20.858Z,47.59
2018-10-07T14:27:50.103Z,46.50
2018-10-07T14:30:18.954Z,47.17
2018-10-07T14:32:48.000Z,46.34
2018-10-07T14:35:16.864Z,47.24
2018-10-07T14:37:45.688Z,47.71
2018-10-07T14:40:14.521Z,45.33
2018-10-07T14:42:43.361Z,46.16
2018-10-07T14:45:12.190Z,47.47
2018-10-07T14:47:41.043Z,46.71
2018-10-07T14:50:09.871Z,47.69
2018-10-07T14:52:38.707Z,45.48
2018-10-07T14:55:07.604Z,47.55
2018-10-07T14:57:36.395Z,47.31
2018-10-07T15:00:05.384Z,48.58
2018-10-07T15:02:34.211Z,47.83
2018-10-07T15:05:03.129Z,48.55
2018-10-07T15:07:32.055Z,48.88
2018-10-07T15:10:00.912Z,48.65
2018-10-07T15:12:29.756Z,51.26
2018-10-07T15:14:58.583Z,49.62
2018-10-07T15:17:27.433Z,48.21
2018-10-07T15:19:56.298Z,48.53
2018-10-07T15:22:25.135Z,48.29
2018-10-07T15:24:53.972Z,47.29
2018-10-07T15:27:22.803Z,46.74
2018-10-07T15:29:51.618Z,48.39
2018-10-07T15:32:20.484Z,48.35
2018-10-07T15:34:49.337Z,47.49
2018-10-07T15:37:18.155Z,48.45
2018-10-07T15:39:47.062Z,46.30
2018-10-07T15:42:15.882Z,46.28
2018-10-07T15:44:44.816Z,45.83
2018-10-07T15:47:13.651Z,46.53
2018-10-07T15:49:42.472Z,47.76
2018-10-07T15:52:11.339Z,47.10
2018-10-07T15:54:40.227Z,49.27
2018-10-07T15:57:09.167Z,49.14
2018-10-07T15:59:38.004Z,47.60
2018-10-07T16:02:06.836Z,48.08
2018-10-07T16:04:35.650Z,51.01
2018-10-07T16:07:04.493Z,51.15
2018-10-07T16:09:33.298Z,53.49
2018-10-07T16:12:02.151Z,52.79
2018-10-07T16:14:31.037Z,55.33
2018-10-07T16:16:59.854Z,54.01
2018-10-07T16:19:28.676Z,53.59
2018-10-07T16:21:57.520Z,53.36
2018-10-07T16:24:26.395Z,55.08
2018-10-07T16:26:55.247Z,52.92
2018-10-07T16:29:24.070Z,54.50
2018-10-07T16:31:52.926Z,54.71
2018-10-07T16:34:21.749Z,58.63
2018-10-07T16:36:50.570Z,62.31
2018-10-07T16:39:19.494Z,64.73
2018-10-07T16:41:48.307Z,68.16
2018-10-07T16:44:17.188Z,71.90
2018-10-07T16:46:46.396Z,76.48
2018-10-07T16:49:15.696Z,79.60
2018-10-07T16:51:44.999Z,79.28
2018-10-07T16:54:14.266Z,80.08
2018-10-07T16:56:43.642Z,81.07
2018-10-07T16:59:12.883Z,81.76
2018-10-07T17:01:42.187Z,82.95
2018-10-07T17:04:11.454Z,84.29
2018-10-07T17:06:40.685Z,83.00
2018-10-07T17:09:10.443Z,85.35
2018-10-07T17:11:39.599Z,84.34
2018-10-07T17:14:08.795Z,84.45
2018-10-07T17:16:38.082Z,83.51
2018-10-07T17:19:07.340Z,86.56
2018-10-07T17:21:37.391Z,86.48
2018-10-07T17:24:06.703Z,86.68
2018-10-07T17:26:36.568Z,86.57
2018-10-07T17:29:05.802Z,87.53
2018-10-07T17:31:35.027Z,87.54
2018-10-07T17:34:04.367Z,86.53
2018-10-07T17:36:33.663Z,87.63
2018-10-07T17:39:03.124Z,85.98
2018-10-07T17:41:31.943Z,88.07
2018-10-07T17:44:00.771Z,90.03
2018-10-07T17:46:29.667Z,89.20
2018-10-07T17:48:58.606Z,88.84
2018-10-07T17:51:27.502Z,89.09
2018-10-07T17:53:56.660Z,89.98
2018-10-07T17:56:25.871Z,90.15
2018-10-07T17:58:55.146Z,90.86
2018-10-07T18:01:24.495Z,89.90
2018-10-07T18:03:53.758Z,91.24
2018-10-07T18:06:22.963Z,91.48
2018-10-07T18:08:52.312Z,91.68
2018-10-07T18:11:21.444Z,91.09
2018-10-07T18:13:50.558Z,91.32
2018-10-07T18:16:19.387Z,92.10
2018-10-07T18:18:48.215Z,92.45
2018-10-07T18:21:17.094Z,92.52
2018-10-07T18:23:45.920Z,91.89
2018-10-07T18:26:14.785Z,92.01
2018-10-07T18:28:43.615Z,91.97
2018-10-07T18:31:12.770Z,92.04
2018-10-07T18:33:42.079Z,90.47
2018-10-07T18:36:11.161Z,90.83
2018-10-07T18:38:40.366Z,89.86
2018-10-07T18:41:09.540Z,89.16
2018-10-07T18:43:38.770Z,89.32
2018-10-07T18:46:08.077Z,89.03
2018-10-07T18:48:37.389Z,88.35
2018-10-07T18:51:06.683Z,88.58
2018-10-07T18:53:35.986Z,87.81
2018-10-07T18:56:05.264Z,90.18
2018-10-07T18:58:34.620Z,89.05
2018-10-07T19:01:04.231Z,89.94
2018-10-07T19:03:33.367Z,89.81
2018-10-07T19:06:02.563Z,90.11
2018-10-07T19:08:31.720Z,89.59
2018-10-07T19:11:01.071Z,89.28
2018-10-07T19:13:30.187Z,89.29
2018-10-07T19:15:59.576Z,88.16
2018-10-07T19:18:28.815Z,87.66
2018-10-07T19:20:58.082Z,88.58
2018-10-07T19:23:27.269Z,88.87
2018-10-07T19:25:56.459Z,89.23
2018-10-07T19:28:25.551Z,91.23
2018-10-07T19:30:54.875Z,91.87
2018-10-07T19:33:24.043Z,92.58
2018-10-07T19:35:53.259Z,92.88
2018-10-07T19:38:22.558Z,93.29
2018-10-07T19:40:51.840Z,92.29
2018-10-07T19:43:21.058Z,93.14
2018-10-07T19:45:50.355Z,93.39
2018-10-07T19:48:19.651Z,92.86
2018-10-07T19:50:48.951Z,93.83
2018-10-07T19:53:18.240Z,91.59
2018-10-07T19:55:47.437Z,90.90
2018-10-07T19:58:16.633Z,91.69
2018-10-07T20:00:45.952Z,91.90
2018-10-07T20:03:15.252Z,91.00
2018-10-07T20:05:44.536Z,90.44
2018-10-07T20:08:13.375Z,90.64
2018-10-07T20:10:42.231Z,90.42
2018-10-07T20:13:11.106Z,89.76
2018-10-07T20:15:40.001Z,89.90
2018-10-07T20:18:09.200Z,90.34
2018-10-07T20:20:38.091Z,89.42
2018-10-07T20:23:07.093Z,89.24
2018-10-07T20:25:36.008Z,89.30
2018-10-07T20:28:04.862Z,88.65
2018-10-07T20:30:33.686Z,88.82
2018-10-07T20:33:02.532Z,89.44
2018-10-07T20:35:31.360Z,90.10
2018-10-07T20:38:00.246Z,90.55
2018-10-07T20:40:29.194Z,90.23
2018-10-07T20:42:57.966Z,90.51
2018-10-07T20:45:26.832Z,91.08
2018-10-07T20:47:55.662Z,91.97
2018-10-07T20:50:25.333Z,91.08
2018-10-07T20:52:53.345Z,91.03
2018-10-07T20:55:22.175Z,91.66
2018-10-07T20:57:51.023Z,91.57
2018-10-07T21:00:19.864Z,91.94
2018-10-07T21:02:48.817Z,91.03
2018-10-07T21:05:17.554Z,91.14
2018-10-07T21:07:46.431Z,92.08
2018-10-07T21:10:15.268Z,92.37
2018-10-07T21:12:44.153Z,92.13
2018-10-07T21:15:13.004Z,91.02
2018-10-07T21:17:41.827Z,90.69
2018-10-07T21:20:10.712Z,90.15
2018-10-07T21:22:39.605Z,91.00
2018-10-07T21:25:08.451Z,91.12
2018-10-07T21:27:37.287Z,90.68
2018-10-07T21:30:06.212Z,91.23
2018-10-07T21:32:35.074Z,90.80
2018-10-07T21:35:03.943Z,91.45
2018-10-07T21:37:32.823Z,92.42
2018-10-07T21:40:01.641Z,91.10
2018-10-07T21:42:30.583Z,90.28
2018-10-07T21:44:59.395Z,89.98
2018-10-07T21:47:28.232Z,90.27
2018-10-07T21:49:57.054Z,90.10
2018-10-07T21:52:25.930Z,89.89
2018-10-07T21:54:54.751Z,89.31
2018-10-07T21:57:23.644Z,89.53
2018-10-07T21:59:52.495Z,89.82
2018-10-07T22:02:21.334Z,89.85
2018-10-07T22:04:50.168Z,89.96
2018-10-07T22:07:19.191Z,89.49
2018-10-07T22:09:48.006Z,90.47
2018-10-07T22:12:16.863Z,89.78
2018-10-07T22:14:45.682Z,89.77
2018-10-07T22:17:14.546Z,89.55
2018-10-07T22:19:43.373Z,89.41
2018-10-07T22:22:12.198Z,89.56
2018-10-07T22:24:41.019Z,89.45
2018-10-07T22:27:09.907Z,89.75
2018-10-07T22:29:38.741Z,90.21
2018-10-07T22:32:07.640Z,90.80
2018-10-07T22:34:36.475Z,90.26
2018-10-07T22:37:05.380Z,89.90
2018-10-07T22:39:34.229Z,90.87
2018-10-07T22:42:03.059Z,90.93
2018-10-07T22:44:31.874Z,90.82
2018-10-07T22:47:00.723Z,90.72
2018-10-07T22:49:29.600Z,91.40
2018-10-07T22:51:58.422Z,91.34
2018-10-07T22:54:27.251Z,90.92
2018-10-07T22:56:56.095Z,90.94
2018-10-07T22:59:24.915Z,91.05
2018-10-07T23:01:53.811Z,91.73
2018-10-07T23:04:22.675Z,91.20
2018-10-07T23:06:51.487Z,91.63
2018-10-07T23:09:20.307Z,91.62
2018-10-07T23:11:49.139Z,91.53
2018-10-07T23:14:17.975Z,92.17
2018-10-07T23:16:46.795Z,91.74
2018-10-07T23:19:15.633Z,92.01
2018-10-07T23:21:44.462Z,91.78
2018-10-07T23:24:13.309Z,92.13
2018-10-07T23:26:42.147Z,92.55
2018-10-07T23:29:10.989Z,92.59
2018-10-07T23:31:39.820Z,92.47
2018-10-07T23:34:08.951Z,92.54
2018-10-07T23:36:37.820Z,91.89
2018-10-07T23:39:09.571Z,91.59
2018-10-07T23:41:38.470Z,91.90
2018-10-07T23:44:07.991Z,91.87
2018-10-07T23:46:36.976Z,93.35
2018-10-07T23:49:05.893Z,93.30
2018-10-07T23:51:35.006Z,94.38
2018-10-07T23:54:03.844Z,94.72
2018-10-07T23:56:32.679Z,95.10
2018-10-07T23:59:01.536Z,95.52
